Archival Weather

Central Park

Central Park, New York (KNYC)

Report from: Tuesday, September 19, 2023 6:51 PM EDT
Current time: Tuesday, July 16, 2024 12:09 PM EDT

Current weather – Weather history – Daily summaries
Weather forecast

Temperature20.6°C (69.1°F)
Dew point8.9°C (48.0°F)
Winds Calm
Visibility10 mi. (16.1 km)
Clouds Sky clear
Altimeter30.02 in.Hg (1017 mB)
Relative humidity47 %
Density altitude732 ft. (223 m)
Sea-level pressure101.6 kPa (1016 mB, 30.00 in.Hg)
Remarks Fully automated report
System requires maintenance
Automated weather observing station with precipitation discriminator
Flight conditions Visual Meteorological Conditions
Raw dataKNYC 192251Z AUTO 00000KT 10SM CLR 21/09 A3002 RMK AO2 SLP158 T02060089 $
An error has occurred. This application may no longer respond until reloaded. Reload 🗙